createdAt,value
2022-08-20T00:00:25.292Z,14.50
2022-08-20T00:02:57.469Z,14.95
2022-08-20T00:05:38.575Z,12.00
2022-08-20T00:08:05.733Z,14.65
2022-08-20T00:10:33.753Z,15.55
2022-08-20T00:13:00.611Z,14.82
2022-08-20T00:15:31.271Z,15.07
2022-08-20T00:17:58.350Z,12.30
2022-08-20T00:20:29.389Z,12.23
2022-08-20T00:22:57.346Z,12.40
2022-08-20T00:25:28.858Z,13.43
2022-08-20T00:27:56.827Z,15.07
2022-08-20T00:30:24.253Z,17.77
2022-08-20T00:32:56.332Z,14.55
2022-08-20T00:35:25.315Z,15.32
2022-08-20T00:37:52.300Z,12.48
2022-08-20T00:40:22.701Z,13.82
2022-08-20T00:42:57.454Z,13.10
2022-08-20T00:45:25.876Z,15.90
2022-08-20T00:47:55.396Z,13.38
2022-08-20T00:50:24.911Z,14.63
2022-08-20T00:52:51.879Z,13.57
2022-08-20T00:55:20.533Z,14.80
2022-08-20T00:58:01.475Z,15.05
2022-08-20T01:00:40.369Z,16.45
2022-08-20T01:03:11.495Z,15.38
2022-08-20T01:05:44.798Z,16.50
2022-08-20T01:08:12.368Z,15.07
2022-08-20T01:10:41.110Z,21.65
2022-08-20T01:13:11.893Z,17.35
2022-08-20T01:15:43.253Z,19.30
2022-08-20T01:18:15.068Z,16.02
2022-08-20T01:20:43.895Z,15.27
2022-08-20T01:23:27.535Z,15.13
2022-08-20T01:26:17.089Z,17.55
2022-08-20T01:28:51.354Z,21.95
2022-08-20T01:31:21.129Z,19.88
2022-08-20T01:33:48.529Z,19.40
2022-08-20T01:36:17.143Z,18.35
2022-08-20T01:38:53.853Z,22.98
2022-08-20T01:41:36.639Z,19.40
2022-08-20T01:44:05.082Z,20.85
2022-08-20T01:46:43.622Z,28.37
2022-08-20T01:49:21.012Z,20.67
2022-08-20T01:51:51.293Z,21.98
2022-08-20T01:54:18.114Z,21.42
2022-08-20T01:56:57.233Z,22.98
2022-08-20T01:59:24.091Z,24.77
2022-08-20T02:01:51.238Z,24.88
2022-08-20T02:04:18.349Z,22.98
2022-08-20T02:06:56.476Z,23.25
2022-08-20T02:09:23.873Z,23.42
2022-08-20T02:11:50.767Z,21.40
2022-08-20T02:14:17.652Z,25.73
2022-08-20T02:16:52.398Z,25.42
2022-08-20T02:19:38.393Z,25.73
2022-08-20T02:22:12.031Z,28.60
2022-08-20T02:24:38.889Z,27.20
2022-08-20T02:27:05.891Z,26.45
2022-08-20T02:29:32.874Z,30.98
2022-08-20T02:32:24.491Z,28.50
2022-08-20T02:34:46.492Z,29.63
2022-08-20T02:37:18.440Z,29.50
2022-08-20T02:39:46.648Z,26.73
2022-08-20T02:42:14.441Z,30.70
2022-08-20T02:44:41.295Z,27.10
2022-08-20T02:47:08.255Z,28.05
2022-08-20T02:49:35.619Z,29.83
2022-08-20T02:52:02.517Z,29.77
2022-08-20T02:54:29.436Z,25.40
2022-08-20T02:56:56.589Z,28.27
2022-08-20T02:59:23.456Z,28.13
2022-08-20T03:01:59.685Z,31.20
2022-08-20T03:04:29.406Z,27.40
2022-08-20T03:06:56.860Z,25.27
2022-08-20T03:09:24.029Z,29.55
2022-08-20T03:11:51.390Z,29.08
2022-08-20T03:14:18.324Z,30.20
2022-08-20T03:16:45.137Z,25.95
2022-08-20T03:19:13.921Z,26.52
2022-08-20T03:21:40.911Z,23.05
2022-08-20T03:24:08.039Z,22.80
2022-08-20T03:26:34.902Z,27.33
2022-08-20T03:29:02.013Z,26.73
2022-08-20T03:31:29.727Z,25.35
2022-08-20T03:33:56.629Z,22.63
2022-08-20T03:36:27.993Z,23.02
2022-08-20T03:38:59.283Z,23.40
2022-08-20T03:41:26.139Z,25.83
2022-08-20T03:43:53.010Z,24.85
2022-08-20T03:46:22.946Z,25.58
2022-08-20T03:48:56.720Z,25.88
2022-08-20T03:51:26.905Z,24.47
2022-08-20T03:53:53.714Z,21.60
2022-08-20T03:56:20.538Z,23.75
2022-08-20T03:58:47.771Z,21.30
2022-08-20T04:01:44.298Z,22.85
2022-08-20T04:04:01.549Z,25.33
2022-08-20T04:06:30.468Z,25.50
2022-08-20T04:08:57.469Z,23.42
2022-08-20T04:11:24.465Z,22.05
2022-08-20T04:13:51.488Z,20.58
2022-08-20T04:16:19.323Z,21.37
2022-08-20T04:18:58.587Z,19.88
2022-08-20T04:21:32.714Z,20.95
2022-08-20T04:24:00.999Z,22.25
2022-08-20T04:26:28.027Z,22.08
2022-08-20T04:28:55.831Z,24.90
2022-08-20T04:31:25.302Z,23.05
2022-08-20T04:33:52.624Z,22.55
2022-08-20T04:36:19.670Z,22.40
2022-08-20T04:38:48.482Z,27.98
2022-08-20T04:41:23.431Z,24.73
2022-08-20T04:43:51.571Z,22.80
2022-08-20T04:46:19.417Z,22.15
2022-08-20T04:48:48.746Z,22.17
2022-08-20T04:51:16.447Z,25.17
2022-08-20T04:53:43.290Z,23.30
2022-08-20T04:56:10.148Z,23.52
2022-08-20T04:58:38.137Z,20.52
2022-08-20T05:01:11.585Z,27.85
2022-08-20T05:03:39.065Z,25.10
2022-08-20T05:06:06.943Z,22.03
2022-08-20T05:08:34.149Z,23.90
2022-08-20T05:11:30.110Z,21.48
2022-08-20T05:13:48.173Z,24.48
2022-08-20T05:16:17.733Z,21.45
2022-08-20T05:18:45.352Z,21.53
2022-08-20T05:21:19.358Z,21.33
2022-08-20T05:23:46.192Z,22.05
2022-08-20T05:26:13.153Z,22.67
2022-08-20T05:28:52.809Z,20.60
2022-08-20T05:31:31.608Z,20.93
2022-08-20T05:34:11.783Z,21.75
2022-08-20T05:36:48.241Z,24.70
2022-08-20T05:39:17.078Z,25.70
2022-08-20T05:41:43.975Z,25.88
2022-08-20T05:44:13.420Z,25.97
2022-08-20T05:46:41.110Z,21.25
2022-08-20T05:49:12.108Z,28.83
2022-08-20T05:51:39.008Z,30.35
2022-08-20T05:54:06.810Z,30.85
2022-08-20T05:56:34.019Z,30.17
2022-08-20T05:59:10.109Z,33.60
2022-08-20T06:01:37.938Z,30.10
2022-08-20T06:04:23.539Z,32.80
2022-08-20T06:06:54.006Z,28.20
2022-08-20T06:09:30.544Z,33.07
2022-08-20T06:12:03.247Z,34.00
2022-08-20T06:14:30.268Z,32.42
2022-08-20T06:17:05.909Z,34.45
2022-08-20T06:19:33.782Z,33.83
2022-08-20T06:22:01.574Z,34.97
2022-08-20T06:24:28.564Z,29.02
2022-08-20T06:27:00.036Z,32.72
2022-08-20T06:29:27.250Z,32.15
2022-08-20T06:31:55.053Z,31.23
2022-08-20T06:34:22.387Z,29.80
2022-08-20T06:36:49.268Z,29.77
2022-08-20T06:39:16.172Z,30.30
2022-08-20T06:41:43.012Z,24.70
2022-08-20T06:44:10.275Z,28.75
2022-08-20T06:46:38.073Z,24.87
2022-08-20T06:49:06.032Z,24.27
2022-08-20T06:51:33.371Z,28.90
2022-08-20T06:54:00.269Z,25.73
2022-08-20T06:56:27.131Z,28.85
2022-08-20T06:58:54.029Z,25.50
2022-08-20T07:01:21.411Z,26.42
2022-08-20T07:03:54.727Z,25.02
2022-08-20T07:06:25.058Z,26.40
2022-08-20T07:08:51.951Z,25.65
2022-08-20T07:11:26.616Z,23.37
2022-08-20T07:13:56.906Z,26.50
2022-08-20T07:16:24.048Z,24.75
2022-08-20T07:18:50.938Z,19.75
2022-08-20T07:21:17.836Z,18.73
2022-08-20T07:23:44.677Z,18.87
2022-08-20T07:26:12.937Z,20.35
2022-08-20T07:28:39.778Z,20.38
2022-08-20T07:31:25.231Z,19.50
2022-08-20T07:33:53.802Z,21.60
2022-08-20T07:36:20.687Z,16.40
2022-08-20T07:38:48.471Z,18.80
2022-08-20T07:41:15.354Z,20.60
2022-08-20T07:43:45.892Z,16.25
2022-08-20T07:46:21.800Z,18.08
2022-08-20T07:48:50.651Z,16.30
2022-08-20T07:51:22.494Z,19.55
2022-08-20T07:53:50.211Z,16.35
2022-08-20T07:56:19.450Z,19.38
2022-08-20T07:58:50.396Z,18.38
2022-08-20T08:01:22.400Z,19.13
2022-08-20T08:03:50.707Z,17.75
2022-08-20T08:06:29.295Z,16.67
2022-08-20T08:09:04.963Z,14.95
2022-08-20T08:11:32.665Z,16.35
2022-08-20T08:13:59.544Z,15.73
2022-08-20T08:16:26.441Z,18.95
2022-08-20T08:18:56.619Z,13.40
2022-08-20T08:21:23.731Z,17.27
2022-08-20T08:23:50.691Z,15.00
2022-08-20T08:26:19.050Z,15.20
2022-08-20T08:28:46.639Z,15.60
2022-08-20T08:31:13.965Z,17.38
2022-08-20T08:33:41.025Z,17.25
2022-08-20T08:36:12.367Z,17.63
2022-08-20T08:38:40.638Z,15.47
2022-08-20T08:41:21.152Z,16.92
2022-08-20T08:43:49.502Z,14.68
2022-08-20T08:46:22.655Z,18.17
2022-08-20T08:48:53.352Z,19.35
2022-08-20T08:51:26.777Z,14.20
2022-08-20T08:53:54.984Z,15.95
2022-08-20T08:56:24.773Z,15.15
2022-08-20T08:58:51.590Z,17.98
2022-08-20T09:01:53.941Z,20.35
2022-08-20T09:04:08.168Z,17.70
2022-08-20T09:06:35.072Z,18.08
2022-08-20T09:09:05.303Z,16.23
2022-08-20T09:11:47.097Z,15.45
2022-08-20T09:14:13.912Z,13.95
2022-08-20T09:16:52.722Z,15.80
2022-08-20T09:19:20.691Z,12.77
2022-08-20T09:21:47.548Z,14.70
2022-08-20T09:24:14.470Z,12.90
2022-08-20T09:26:41.415Z,14.32
2022-08-20T09:29:08.333Z,12.87
2022-08-20T09:31:35.803Z,13.23
2022-08-20T09:34:05.244Z,14.38
2022-08-20T09:36:32.951Z,12.52
2022-08-20T09:39:00.821Z,12.98
2022-08-20T09:41:30.746Z,13.93
2022-08-20T09:43:57.637Z,14.90
2022-08-20T09:46:27.268Z,13.35
2022-08-20T09:48:55.015Z,15.70
2022-08-20T09:51:22.072Z,14.27
2022-08-20T09:53:49.252Z,13.40
2022-08-20T09:56:16.261Z,14.73
2022-08-20T09:58:51.096Z,12.70
2022-08-20T10:01:18.998Z,16.42
2022-08-20T10:04:06.809Z,16.60
2022-08-20T10:06:37.925Z,16.23
2022-08-20T10:09:04.897Z,15.13
2022-08-20T10:11:31.730Z,13.35
2022-08-20T10:13:58.916Z,14.48
2022-08-20T10:16:25.839Z,15.65
2022-08-20T10:18:53.635Z,13.43
2022-08-20T10:21:20.849Z,15.25
2022-08-20T10:23:47.752Z,16.20
2022-08-20T10:26:15.222Z,15.73
2022-08-20T10:28:42.091Z,17.83
2022-08-20T10:31:09.710Z,14.03
2022-08-20T10:33:36.910Z,16.65
2022-08-20T10:36:12.139Z,14.70
2022-08-20T10:38:39.371Z,14.82
2022-08-20T10:41:06.290Z,14.48
2022-08-20T10:43:33.113Z,15.70
2022-08-20T10:46:00.028Z,16.10
2022-08-20T10:48:27.073Z,13.75
2022-08-20T10:50:53.970Z,13.77
2022-08-20T10:53:20.833Z,13.98
2022-08-20T10:55:47.785Z,13.13
2022-08-20T10:58:14.759Z,13.73
2022-08-20T11:00:41.779Z,14.45
2022-08-20T11:03:08.669Z,17.73
2022-08-20T11:05:35.580Z,17.33
2022-08-20T11:08:03.718Z,12.70
2022-08-20T11:10:33.287Z,16.20
2022-08-20T11:13:01.709Z,15.20
2022-08-20T11:15:28.607Z,14.30
2022-08-20T11:17:56.568Z,14.93
2022-08-20T11:20:25.205Z,16.13
2022-08-20T11:22:53.388Z,14.90
2022-08-20T11:25:20.669Z,16.17
2022-08-20T11:27:48.873Z,17.67
2022-08-20T11:30:18.612Z,16.38
2022-08-20T11:32:45.489Z,14.00
2022-08-20T11:35:41.008Z,15.98
2022-08-20T11:37:59.499Z,12.75
2022-08-20T11:40:26.841Z,14.07
2022-08-20T11:43:13.680Z,15.55
2022-08-20T11:45:40.537Z,13.13
2022-08-20T11:48:07.473Z,15.75
2022-08-20T11:50:34.278Z,14.52
2022-08-20T11:53:01.499Z,17.90
2022-08-20T11:55:30.376Z,15.48
2022-08-20T11:57:59.998Z,17.00
2022-08-20T12:00:31.763Z,17.38
2022-08-20T12:03:00.043Z,14.10
2022-08-20T12:05:27.514Z,14.73
2022-08-20T12:07:54.410Z,19.05
2022-08-20T12:10:23.197Z,14.47
2022-08-20T12:12:50.128Z,15.48
2022-08-20T12:15:17.129Z,16.08
2022-08-20T12:17:44.132Z,18.25
2022-08-20T12:20:12.353Z,19.30
2022-08-20T12:22:39.310Z,14.77
2022-08-20T12:25:06.756Z,15.13
2022-08-20T12:27:34.188Z,16.58
2022-08-20T12:30:02.312Z,15.80
2022-08-20T12:32:30.791Z,17.98
2022-08-20T12:34:57.849Z,22.00
2022-08-20T12:37:27.736Z,23.08
2022-08-20T12:39:56.702Z,23.58
2022-08-20T12:42:23.752Z,25.50
2022-08-20T12:44:50.772Z,28.50
2022-08-20T12:47:20.128Z,30.50
2022-08-20T12:49:52.008Z,30.02
2022-08-20T12:52:19.869Z,31.95
2022-08-20T12:54:46.791Z,29.85
2022-08-20T12:57:36.189Z,29.60
2022-08-20T13:00:07.569Z,35.00
2022-08-20T13:02:34.551Z,30.85
2022-08-20T13:05:04.858Z,32.50
2022-08-20T13:07:32.794Z,43.28
2022-08-20T13:09:59.807Z,32.45
2022-08-20T13:12:26.722Z,21.10
2022-08-20T13:14:53.528Z,17.02
2022-08-20T13:17:20.416Z,17.77
2022-08-20T13:20:06.936Z,32.22
2022-08-20T13:22:33.850Z,35.60
2022-08-20T13:25:00.729Z,27.00
2022-08-20T13:27:27.872Z,29.63
2022-08-20T13:29:58.582Z,33.47
2022-08-20T13:32:26.122Z,33.30
2022-08-20T13:34:53.139Z,41.08
2022-08-20T13:37:25.591Z,25.57
2022-08-20T13:39:53.619Z,28.48
2022-08-20T13:42:20.513Z,32.70
2022-08-20T13:44:47.516Z,32.47
2022-08-20T13:47:18.979Z,31.17
2022-08-20T13:49:46.330Z,35.33
2022-08-20T13:52:13.346Z,37.42
2022-08-20T13:54:44.175Z,45.25
2022-08-20T13:57:16.945Z,36.85
2022-08-20T13:59:45.614Z,31.88
2022-08-20T14:02:12.740Z,34.70
2022-08-20T14:04:39.693Z,31.75
2022-08-20T14:07:16.012Z,33.30
2022-08-20T14:09:45.117Z,37.22
2022-08-20T14:12:13.174Z,33.45
2022-08-20T14:14:40.577Z,33.60
2022-08-20T14:17:28.031Z,33.40
2022-08-20T14:20:00.809Z,34.22
2022-08-20T14:22:28.175Z,32.55
2022-08-20T14:24:55.218Z,31.80
2022-08-20T14:27:22.258Z,35.73
2022-08-20T14:29:49.952Z,31.05
2022-08-20T14:32:17.143Z,30.38
2022-08-20T14:34:44.129Z,25.88
2022-08-20T14:37:17.464Z,30.88
2022-08-20T14:39:45.593Z,27.63
2022-08-20T14:42:13.013Z,25.52
2022-08-20T14:44:40.117Z,26.42
2022-08-20T14:47:18.313Z,27.02
2022-08-20T14:49:45.399Z,30.98
2022-08-20T14:52:13.021Z,29.70
2022-08-20T14:54:40.023Z,28.80
2022-08-20T14:57:08.906Z,31.38
2022-08-20T14:59:40.951Z,31.65
2022-08-20T15:02:09.211Z,34.63
2022-08-20T15:04:36.150Z,30.80
2022-08-20T15:07:04.935Z,33.80
2022-08-20T15:09:37.900Z,31.58
2022-08-20T15:12:05.263Z,30.20
2022-08-20T15:14:32.070Z,29.52
2022-08-20T15:17:00.486Z,29.13
2022-08-20T15:19:27.348Z,27.20
2022-08-20T15:21:54.217Z,28.88
2022-08-20T15:24:21.838Z,28.48
2022-08-20T15:26:48.690Z,29.00
2022-08-20T15:29:23.050Z,29.97
2022-08-20T15:31:50.854Z,29.08
2022-08-20T15:34:18.416Z,27.48
2022-08-20T15:36:45.904Z,28.27
2022-08-20T15:39:12.848Z,25.63
2022-08-20T15:41:39.751Z,27.80
2022-08-20T15:44:07.253Z,24.00
2022-08-20T15:46:37.493Z,23.90
2022-08-20T15:49:08.535Z,24.20
2022-08-20T15:51:42.069Z,23.45
2022-08-20T15:54:12.696Z,23.47
2022-08-20T15:57:17.535Z,24.92
2022-08-20T16:00:11.549Z,25.27
2022-08-20T16:03:06.275Z,26.25
2022-08-20T16:05:44.811Z,27.10
2022-08-20T16:08:36.608Z,27.90
2022-08-20T16:11:06.436Z,24.17
2022-08-20T16:14:01.231Z,26.50
2022-08-20T16:16:32.879Z,22.70
2022-08-20T16:18:59.797Z,23.63
2022-08-20T16:21:33.971Z,21.83
2022-08-20T16:24:00.942Z,23.98
2022-08-20T16:26:45.529Z,20.98
2022-08-20T16:29:32.667Z,24.67
2022-08-20T16:32:10.569Z,24.08
2022-08-20T16:34:59.596Z,24.70
2022-08-20T16:37:56.767Z,23.92
2022-08-20T16:40:25.740Z,23.85
2022-08-20T16:42:53.676Z,22.40
2022-08-20T16:45:24.435Z,24.38
2022-08-20T16:47:51.688Z,23.87
2022-08-20T16:50:54.275Z,22.58
2022-08-20T16:53:22.738Z,24.08
2022-08-20T16:55:49.619Z,23.25
2022-08-20T16:58:16.530Z,25.10
2022-08-20T17:00:45.408Z,26.87
2022-08-20T17:03:31.369Z,22.65
2022-08-20T17:06:35.430Z,21.17
2022-08-20T17:09:14.390Z,25.45
2022-08-20T17:11:47.829Z,23.08
2022-08-20T17:14:16.930Z,24.73
2022-08-20T17:16:49.421Z,24.98
2022-08-20T17:19:19.429Z,24.13
2022-08-20T17:21:46.489Z,25.08
2022-08-20T17:24:21.150Z,22.23
2022-08-20T17:27:00.356Z,26.77
2022-08-20T17:29:29.974Z,26.20
2022-08-20T17:32:09.450Z,23.65
2022-08-20T17:34:50.505Z,27.13
2022-08-20T17:37:25.392Z,25.15
2022-08-20T17:40:23.687Z,26.17
2022-08-20T17:43:04.471Z,22.92
2022-08-20T17:45:42.287Z,25.40
2022-08-20T17:48:14.130Z,28.08
2022-08-20T17:50:41.748Z,26.75
2022-08-20T17:53:31.814Z,30.73
2022-08-20T17:56:01.758Z,28.50
2022-08-20T17:58:54.472Z,28.42
2022-08-20T18:01:22.950Z,29.90
2022-08-20T18:03:50.413Z,32.85
2022-08-20T18:06:30.499Z,31.57
2022-08-20T18:09:05.005Z,32.40
2022-08-20T18:11:56.450Z,32.45
2022-08-20T18:14:41.794Z,36.50
2022-08-20T18:17:15.692Z,39.75
2022-08-20T18:20:05.850Z,37.77
2022-08-20T18:22:35.869Z,41.03
2022-08-20T18:25:19.228Z,45.58
2022-08-20T18:27:47.874Z,45.30
2022-08-20T18:30:17.600Z,42.85
2022-08-20T18:32:44.556Z,47.10
2022-08-20T18:35:24.209Z,43.55
2022-08-20T18:37:51.089Z,44.03
2022-08-20T18:40:19.529Z,44.92
2022-08-20T18:42:46.491Z,42.33
2022-08-20T18:45:13.458Z,40.17
2022-08-20T18:47:45.339Z,40.38
2022-08-20T18:50:21.250Z,41.47
2022-08-20T18:52:50.423Z,39.13
2022-08-20T18:55:39.159Z,38.33
2022-08-20T18:58:11.513Z,38.20
2022-08-20T19:00:46.030Z,39.30
2022-08-20T19:03:15.039Z,38.00
2022-08-20T19:05:44.771Z,38.17
2022-08-20T19:08:17.378Z,36.22
2022-08-20T19:11:12.351Z,36.93
2022-08-20T19:14:16.317Z,34.55
2022-08-20T19:16:49.349Z,39.78
2022-08-20T19:19:20.649Z,35.47
2022-08-20T19:21:47.537Z,37.08
2022-08-20T19:24:16.028Z,37.13
2022-08-20T19:26:50.155Z,37.28
2022-08-20T19:29:27.073Z,36.20
2022-08-20T19:32:01.150Z,39.22
2022-08-20T19:34:28.427Z,40.80
2022-08-20T19:37:28.177Z,41.33
2022-08-20T19:39:53.905Z,41.58
2022-08-20T19:42:26.126Z,42.15
2022-08-20T19:44:56.857Z,39.58
2022-08-20T19:47:32.774Z,41.75
2022-08-20T19:50:20.932Z,41.63
2022-08-20T19:52:51.928Z,40.40
2022-08-20T19:55:24.004Z,44.08
2022-08-20T19:58:01.575Z,42.00
2022-08-20T20:00:32.806Z,42.92
2022-08-20T20:03:12.500Z,43.03
2022-08-20T20:05:52.722Z,42.83
2022-08-20T20:08:20.296Z,39.28
2022-08-20T20:10:54.228Z,46.08
2022-08-20T20:13:21.817Z,42.08
2022-08-20T20:15:51.056Z,42.73
2022-08-20T20:18:17.888Z,43.95
2022-08-20T20:20:55.827Z,44.20
2022-08-20T20:23:26.938Z,43.42
2022-08-20T20:26:00.403Z,41.72
2022-08-20T20:28:53.068Z,43.47
2022-08-20T20:31:29.546Z,39.53
2022-08-20T20:33:58.637Z,38.42
2022-08-20T20:36:44.614Z,36.72
2022-08-20T20:39:28.105Z,39.63
2022-08-20T20:41:55.932Z,43.67
2022-08-20T20:44:27.912Z,39.53
2022-08-20T20:46:59.291Z,42.67
2022-08-20T20:49:33.248Z,41.75
2022-08-20T20:52:01.475Z,43.22
2022-08-20T20:54:46.997Z,41.80
2022-08-20T20:57:23.905Z,39.97
2022-08-20T20:59:59.034Z,39.63
2022-08-20T21:02:25.869Z,45.95
2022-08-20T21:04:52.767Z,41.63
2022-08-20T21:07:21.769Z,38.27
2022-08-20T21:09:50.313Z,41.67
2022-08-20T21:12:17.186Z,43.47
2022-08-20T21:14:44.089Z,42.25
2022-08-20T21:17:15.368Z,45.67
2022-08-20T21:19:45.141Z,44.67
2022-08-20T21:22:12.097Z,46.08
2022-08-20T21:24:39.022Z,45.80
2022-08-20T21:27:05.983Z,43.28
2022-08-20T21:29:33.178Z,48.00
2022-08-20T21:32:00.383Z,45.53
2022-08-20T21:34:27.297Z,44.97
2022-08-20T21:36:54.240Z,45.35
2022-08-20T21:39:23.140Z,43.17
2022-08-20T21:41:51.530Z,38.10
2022-08-20T21:44:24.735Z,41.77
2022-08-20T21:46:52.272Z,42.65
2022-08-20T21:49:22.482Z,42.30
2022-08-20T21:51:49.736Z,41.50
2022-08-20T21:54:17.109Z,37.28
2022-08-20T21:56:45.750Z,38.20
2022-08-20T21:59:12.655Z,38.45
2022-08-20T22:01:39.614Z,38.08
2022-08-20T22:04:06.766Z,40.40
2022-08-20T22:06:33.843Z,41.30
2022-08-20T22:09:00.753Z,37.50
2022-08-20T22:11:27.669Z,35.42
2022-08-20T22:13:54.750Z,34.78
2022-08-20T22:16:22.262Z,35.40
2022-08-20T22:18:49.826Z,37.05
2022-08-20T22:21:27.363Z,32.93
2022-08-20T22:23:57.329Z,34.95
2022-08-20T22:26:27.349Z,33.50
2022-08-20T22:28:54.469Z,36.58
2022-08-20T22:31:24.234Z,37.80
2022-08-20T22:33:51.132Z,36.07
2022-08-20T22:36:18.351Z,39.60
2022-08-20T22:38:45.566Z,39.88
2022-08-20T22:41:14.901Z,39.75
2022-08-20T22:43:55.813Z,41.92
2022-08-20T22:46:26.446Z,37.47
2022-08-20T22:48:54.238Z,43.05
2022-08-20T22:51:23.507Z,44.35
2022-08-20T22:53:50.529Z,41.45
2022-08-20T22:56:21.618Z,39.95
2022-08-20T22:58:50.074Z,39.43
2022-08-20T23:01:17.946Z,44.17
2022-08-20T23:03:44.832Z,43.15
2022-08-20T23:06:11.716Z,40.25
2022-08-20T23:08:39.289Z,39.33
2022-08-20T23:11:06.372Z,38.00
2022-08-20T23:13:33.608Z,36.80
2022-08-20T23:16:00.413Z,35.50
2022-08-20T23:18:27.229Z,35.90
2022-08-20T23:20:56.277Z,32.53
2022-08-20T23:23:24.250Z,34.10
2022-08-20T23:25:51.129Z,33.03
2022-08-20T23:28:19.172Z,33.65
2022-08-20T23:30:46.744Z,33.90
2022-08-20T23:33:13.649Z,35.88
2022-08-20T23:35:40.734Z,35.00
2022-08-20T23:38:07.906Z,31.27
2022-08-20T23:40:34.964Z,37.13
2022-08-20T23:43:01.928Z,32.00
2022-08-20T23:45:28.948Z,33.10
2022-08-20T23:47:55.807Z,30.10
2022-08-20T23:50:25.182Z,33.28
2022-08-20T23:52:52.911Z,34.08
2022-08-20T23:55:20.428Z,31.55
2022-08-20T23:57:47.268Z,33.45
